Accueil
METAR-TAF:

METAR-TAF

Aéroports :

Aéroport international de Phuket

Phuket, Thaïlande

latitude: 08-07N, longitude: 098-19E, altitude: 6 m

Observation

Le bulletin a été fait il y a 27 minutes, à 22:30 UTC
Vent calme
Température 27°C
Humidité 89%
Pression 1006 hPa
Visibilité 10 km ou plus
Quelques nuages à une hauteur de 2000 ft

METAR: VTSP 182230Z 00000KT 9999 FEW020 27/25 Q1006 NOSIG

Heure: 05:57 (22:57 UTC)

Prévision

Le bulletin a été fait il y a 5 heures et 57 minutes, à 17:00 UTC
Prévision valable du 18 à 18 UTC au 19 à 24 UTC
Vent 7 kt de ouest
Visibilité 10 km ou plus
Quelques nuages à une hauteur de 2000 ft

TAF: VTSP 181700Z 1818/1924 28007KT 9999 FEW020

Observations et prévisions météorologiques de plus de 4000 aéroports (messages METAR et TAF).

Les stations disponibles sont représentées par des disques jaunes et rouges sur la carte.

Passer la souris dessus pour voir le nom de la station.

Cliquer dessus pour voir les observations et prévisions météorologiques.

Pour changer de carte: cliquez sur les boutons verts avec une croix noire pour zoomer, sur le bouton vert avec un tiret pour effectuer un zoom arrière, ou sur les flèches vertes pour les cartes adjacentes.


METAR-TAF: